Terminal Aerodrome Forecast
Issued by NWS Miami, FL

Home | Current Version | Previous Version | Text Only | Print | Product List | Glossary On
Versions: 1 2 3 4 5 6 7 8 9 10 11 12 13 14 15 16 17 18 19 20 21 22 23 24
452
FTUS42 KMFL 221501 AAA
TAFAPF
TAF AMD
KAPF 221501Z 2215/2312 34006KT P6SM FEW020
     FM221700 28010KT P6SM VCTS SCT035CB
     FM222300 31007KT P6SM VCSH SCT030 SCT250
     FM230100 VRB03KT P6SM FEW025 SCT250=

USA.gov is the U.S. government's official web portal to all federal, state and local government web resources and services.